Latest Weather Observations for Naracoorte

IDS60801

Issued at 9:35 pm CST Monday 21 April 2014 (issued every 30 minutes, with the page automatically refreshed every 10 minutes)

About weather observations | Map of weather stations | Latest weather observations for SA | Other Formats
Station Details ID: 026099 Name: NARACOORTE AERODROME Lat: -36.98 Lon: 140.73 Height: 49.72 m
Data from the previous 72 hours. | See also: Recent months at Naracoorte
Date/Time
CST
Temp
°C
App
Temp
°C
Dew
Point
Rel
Hum
%
Delta-T
°C
Wind Press
QNH
hPa
Press
MSL
hPa
Rain
since 9 am
mm
Dir
 
Spd
km/h
Gust
km/h
Spd
kts
Gust
kts
21/09:30pm 16.7 17.5 14.7 88 1.2 ESE 4 9 2 5 1011.9 - 0.2
21/09:00pm 17.0 16.5 13.9 82 1.8 SE 9 11 5 6 1011.5 1011.5 0.2
21/08:30pm 18.2 16.9 12.6 70 3.1 SW 11 15 6 8 1011.7 - 0.0
21/08:00pm 20.5 19.1 9.4 49 5.9 NNE 7 9 4 5 1011.4 - 0.0
21/07:30pm 20.5 17.7 8.5 46 6.3 W 13 17 7 9 1011.5 - 0.0
21/07:00pm 21.4 19.7 8.3 43 6.9 NW 7 11 4 6 1011.2 - 0.0
21/06:30pm 20.7 18.8 9.0 47 6.2 N 9 13 5 7 1011.0 - 0.0
21/06:00pm 21.0 18.5 8.3 44 6.7 W 11 17 6 9 1011.2 1011.2 0.0
21/05:30pm 23.0 20.4 7.9 38 7.9 NW 11 15 6 8 1010.7 - 0.0
21/05:00pm 22.6 20.7 7.6 38 7.8 WNW 7 11 4 6 1010.4 - 0.0
21/04:30pm 24.1 20.9 6.8 33 9.0 NNW 13 19 7 10 1010.2 - 0.0
21/04:00pm 24.4 19.8 6.6 32 9.2 NNW 20 28 11 15 1010.2 - 0.0
21/03:30pm 24.6 19.3 6.8 32 9.3 N 24 37 13 20 1010.0 - 0.0
21/03:00pm 24.6 18.5 6.8 32 9.3 N 28 43 15 23 1010.1 1010.1 0.0
21/02:30pm 24.4 17.9 6.6 32 9.2 NNW 30 43 16 23 1010.5 - 0.0
21/02:00pm 24.0 18.7 6.7 33 9.0 N 24 37 13 20 1010.7 - 0.0
21/01:30pm 23.7 17.6 6.5 33 8.9 N 28 41 15 22 1010.8 - 0.0
21/01:00pm 22.8 15.9 6.6 35 8.3 N 32 44 17 24 1011.3 - 0.0
21/12:30pm 22.6 16.5 6.8 36 8.1 N 28 39 15 21 1011.9 - 0.0
21/12:11pm 22.1 15.8 5.9 35 8.2 N 28 46 15 25 1012.2 - 0.0
21/12:00pm 23.3 16.4 6.6 34 8.6 NNE 32 43 17 23 1012.4 1012.4 0.0
21/11:30am 21.2 15.8 6.3 38 7.5 N 24 35 13 19 1013.7 - 0.0
21/11:00am 20.7 14.2 6.3 39 7.3 N 30 43 16 23 1013.9 - 0.0
21/10:30am 20.1 13.5 6.1 40 7.0 N 30 44 16 24 1013.7 - 0.0
21/10:00am 19.9 14.0 5.9 40 7.0 NNE 26 44 14 24 1013.9 - 0.0
21/09:39am 19.3 12.9 5.4 40 6.8 N 28 46 15 25 1014.2 - 0.0
21/09:30am 19.7 12.9 6.8 43 6.5 N 32 44 17 24 1014.3 - 0.0
21/09:14am 18.3 12.1 6.2 45 6.0 N 28 48 15 26 1014.4 - 0.0
21/09:00am 17.4 11.2 6.3 48 5.5 N 28 41 15 22 1014.7 1014.8 0.0
21/08:30am 16.2 10.5 6.9 54 4.6 N 26 37 14 20 1014.8 - 0.0
21/08:00am 14.9 8.2 7.5 61 3.7 NNE 32 41 17 22 1014.8 - 0.0
21/07:30am 14.0 10.0 8.2 68 2.9 N 19 28 10 15 1015.2 - 0.0
21/07:00am 13.0 9.0 8.9 76 2.1 NNE 20 28 11 15 1015.1 - 0.0
21/06:30am 11.8 7.9 9.5 86 1.2 NE 20 26 11 14 1015.2 - 0.0
21/06:00am 11.9 9.8 9.8 87 1.1 NE 11 15 6 8 1016.1 1016.2 0.0
21/05:30am 11.7 9.6 9.9 89 0.9 NE 11 15 6 8 1016.0 - 0.0
21/05:00am 11.9 9.9 10.3 90 0.8 N 11 15 6 8 1016.0 - 0.0
21/04:30am 11.9 9.0 11.0 94 0.5 NE 17 20 9 11 1015.4 - 0.0
21/04:00am 11.5 9.3 10.7 95 0.4 NNE 13 17 7 9 1015.7 - 0.0
21/03:30am 11.3 9.4 10.5 95 0.4 N 11 13 6 7 1016.2 - 0.0
21/03:00am 11.2 9.3 10.4 95 0.4 NNE 11 13 6 7 1016.0 1016.1 0.0
21/02:30am 11.2 9.7 10.4 95 0.4 N 9 11 5 6 1016.5 - 0.0
21/02:00am 11.8 9.7 11.0 95 0.4 NNE 13 17 7 9 1016.7 - 0.0
21/01:30am 11.6 9.8 10.7 94 0.5 N 11 15 6 8 1017.0 - 0.0
21/01:00am 11.8 10.0 11.0 95 0.4 NNE 11 13 6 7 1016.5 - 0.0
21/12:30am 12.0 10.3 11.2 95 0.4 NNE 11 13 6 7 1017.0 - 0.0
21/12:00am 12.3 10.7 11.4 94 0.5 N 11 13 6 7 1017.5 1017.6 0.0
 
Date/Time
CST
Temp
°C
App
Temp
°C
Dew
Point
Rel
Hum
%
Delta-T
°C
Wind Press
QNH
hPa
Press
MSL
hPa
Rain
since 9 am
mm
Dir
 
Spd
km/h
Gust
km/h
Spd
kts
Gust
kts
20/11:30pm 12.2 10.5 11.3 94 0.5 N 11 13 6 7 1017.9 - 0.0
20/11:00pm 12.1 11.1 11.0 93 0.6 N 7 9 4 5 1017.7 - 0.0
20/10:30pm 11.7 10.5 10.4 92 0.7 N 7 9 4 5 1018.1 - 0.0
20/10:00pm 12.0 10.1 10.4 90 0.8 N 11 15 6 8 1018.2 - 0.0
20/09:30pm 12.0 10.4 10.1 88 1.0 N 9 11 5 6 1018.1 - 0.0
20/09:00pm 12.5 10.6 10.4 87 1.1 N 11 15 6 8 1018.1 1018.1 0.0
20/08:30pm 12.5 10.9 10.2 86 1.2 N 9 11 5 6 1018.0 - 0.0
20/08:00pm 13.4 11.5 10.6 83 1.5 NNW 11 13 6 7 1017.7 - 0.0
20/07:30pm 14.0 12.2 10.8 81 1.7 NW 11 15 6 8 1018.0 - 0.0
20/07:00pm 14.4 12.1 10.6 78 2.0 NW 13 15 7 8 1017.7 - 0.0
20/06:30pm 14.6 11.9 10.4 76 2.2 NW 15 17 8 9 1017.5 - 0.0
20/06:00pm 15.3 13.0 10.5 73 2.5 NW 13 17 7 9 1017.2 1017.3 0.0
20/05:30pm 16.3 14.0 10.6 69 3.0 NW 13 17 7 9 1017.1 - 0.0
20/05:00pm 17.6 13.7 10.9 65 3.6 WNW 22 30 12 16 1017.0 - 0.0
20/04:30pm 18.1 12.6 10.7 62 4.0 W 30 37 16 20 1016.7 - 0.0
20/04:00pm 18.9 14.2 10.5 58 4.5 W 26 35 14 19 1016.4 - 0.0
20/03:30pm 19.1 14.3 10.4 57 4.7 W 26 35 14 19 1016.2 - 0.0
20/03:00pm 19.1 14.6 9.9 55 4.9 W 24 39 13 21 1016.2 1016.3 0.0
20/02:30pm 20.1 13.9 9.4 50 5.7 W 32 39 17 21 1016.0 - 0.0
20/02:00pm 20.6 15.0 8.9 47 6.2 WNW 28 41 15 22 1015.9 - 0.0
20/01:30pm 21.2 16.5 9.1 46 6.4 WNW 24 39 13 21 1016.0 - 0.0
20/01:00pm 20.1 14.9 8.8 48 5.9 WNW 26 35 14 19 1016.4 - 0.0
20/12:30pm 19.7 14.6 7.8 46 6.1 W 24 41 13 22 1016.7 - 0.0
20/12:00pm 20.1 14.7 6.4 41 6.9 WNW 24 33 13 18 1017.0 1017.1 0.0
20/11:30am 19.9 14.1 6.3 41 6.8 NW 26 33 14 18 1017.3 - 0.0
20/11:00am 18.5 12.6 5.7 43 6.3 NW 26 37 14 20 1017.9 - 0.0
20/10:30am 18.2 11.8 5.1 42 6.3 NW 28 35 15 19 1018.2 - 0.0
20/10:00am 17.6 11.6 5.2 44 6.0 NW 26 37 14 20 1018.4 - 0.0
20/09:30am 16.8 10.9 6.0 49 5.3 NNW 26 33 14 18 1018.5 - 0.0
20/09:00am 16.5 11.2 6.6 52 4.9 NW 24 32 13 17 1018.5 1018.5 0.0
20/08:30am 14.6 11.0 6.7 59 3.8 NNW 15 20 8 11 1018.4 - 0.0
20/08:00am 13.8 10.9 6.4 61 3.6 N 11 15 6 8 1018.1 - 0.0
20/07:30am 12.9 10.4 6.7 66 3.0 N 9 11 5 6 1018.0 - 0.0
20/07:00am 12.2 9.3 6.3 67 2.8 N 11 13 6 7 1017.5 - 0.0
20/06:30am 12.0 9.0 6.1 67 2.8 N 11 15 6 8 1017.3 - 0.0
20/06:00am 12.4 9.4 6.0 65 3.0 N 11 17 6 9 1017.1 1017.2 0.0
20/05:30am 12.4 9.0 6.0 65 3.0 N 13 17 7 9 1017.0 - 0.0
20/05:00am 12.1 9.5 5.9 66 2.9 N 9 13 5 7 1017.0 - 0.0
20/04:30am 11.9 9.3 6.2 68 2.7 NNE 9 11 5 6 1016.9 - 0.0
20/04:00am 12.0 9.9 6.5 69 2.6 N 7 9 4 5 1016.8 - 0.0
20/03:30am 12.1 10.8 6.2 67 2.8 N 2 9 1 5 1016.9 - 0.0
20/03:00am 12.1 10.0 6.6 69 2.6 N 7 11 4 6 1016.9 1017.0 0.0
20/02:30am 11.5 10.8 6.8 73 2.2 CALM 0 0 0 0 1017.1 - 0.0
20/02:00am 11.6 10.9 7.1 74 2.2 CALM 0 0 0 0 1017.3 - 0.0
20/01:30am 11.8 10.0 7.1 73 2.3 N 6 7 3 4 1017.6 - 0.0
20/01:00am 11.8 10.1 7.5 75 2.1 N 6 7 3 4 1017.6 - 0.0
20/12:30am 11.9 10.9 7.4 74 2.2 NNW 2 6 1 3 1017.6 - 0.0
20/12:00am 11.9 11.1 6.6 70 2.5 CALM 0 0 0 0 1017.7 1017.8 0.0
 
Date/Time
CST
Temp
°C
App
Temp
°C
Dew
Point
Rel
Hum
%
Delta-T
°C
Wind Press
QNH
hPa
Press
MSL
hPa
Rain
since 9 am
mm
Dir
 
Spd
km/h
Gust
km/h
Spd
kts
Gust
kts
19/11:30pm 12.3 10.4 6.8 69 2.6 N 6 9 3 5 1017.9 - 0.0
19/11:00pm 11.8 9.9 6.7 71 2.4 W 6 9 3 5 1018.2 - 0.0
19/10:30pm 12.5 11.8 7.0 69 2.7 CALM 0 0 0 0 1018.4 - 0.0
19/10:00pm 12.6 11.8 6.6 67 2.9 CALM 0 0 0 0 1018.6 - 0.0
19/09:30pm 12.8 12.0 6.6 66 3.0 CALM 0 0 0 0 1018.9 - 0.0
19/09:00pm 13.3 12.4 6.2 62 3.4 CALM 0 0 0 0 1019.0 1019.0 0.0
19/08:30pm 13.1 11.0 6.0 62 3.4 SW 6 7 3 4 1019.1 - 0.0
19/08:00pm 13.3 11.1 6.4 63 3.3 WSW 7 9 4 5 1019.1 - 0.0
19/07:30pm 13.8 11.3 6.7 62 3.4 SW 9 17 5 9 1019.2 - 0.0
19/07:00pm 14.0 13.2 6.4 60 3.7 CALM 0 0 0 0 1019.0 - 0.0
19/06:30pm 14.6 13.7 6.2 57 4.0 CALM 0 4 0 2 1019.0 - 0.0
19/06:00pm 14.6 11.6 6.2 57 4.0 S 11 17 6 9 1019.2 1019.2 0.0
19/05:30pm 15.0 12.4 6.0 55 4.3 SW 9 13 5 7 1019.0 - 0.0
19/05:00pm 15.4 12.7 5.6 52 4.7 SW 9 11 5 6 1018.9 - 0.0
19/04:30pm 15.7 13.4 5.6 51 4.8 SW 7 11 4 6 1019.0 - 0.0
19/04:00pm 16.0 13.2 5.3 49 5.1 SSW 9 15 5 8 1019.1 - 0.0
19/03:30pm 16.1 13.3 5.1 48 5.2 WSW 9 15 5 8 1019.4 - 0.0
19/03:00pm 16.5 13.7 5.2 47 5.4 SSW 9 15 5 8 1019.4 1019.4 0.0
19/02:30pm 16.1 12.9 5.1 48 5.2 SW 11 19 6 10 1019.5 - 0.0
19/02:00pm 16.3 14.0 5.6 49 5.2 S 7 13 4 7 1019.7 - 0.0
19/01:30pm 16.5 12.9 4.9 46 5.5 W 13 22 7 12 1019.9 - 0.0
19/01:00pm 16.7 13.8 4.7 45 5.7 W 9 19 5 10 1020.3 - 0.0
19/12:30pm 16.0 13.2 5.3 49 5.1 S 9 13 5 7 1020.9 - 0.0
19/12:00pm 16.0 14.1 5.0 48 5.2 NNE 4 13 2 7 1021.5 1021.5 0.0
19/11:30am 15.5 11.9 4.8 49 5.0 W 13 20 7 11 1022.0 - 0.0
19/11:00am 15.9 14.6 5.8 51 4.9 NNW 2 6 1 3 1022.3 - 0.0
19/10:30am 14.8 12.7 6.6 58 4.0 N 7 9 4 5 1022.5 - 0.0
19/10:00am 14.1 12.1 6.9 62 3.5 N 7 9 4 5 1022.8 - 0.0
19/09:30am 12.9 12.3 7.4 69 2.7 CALM 0 7 0 4 1023.0 - 0.0
19/09:00am 12.0 10.6 7.1 72 2.3 S 4 9 2 5 1023.1 1023.1 0.0
19/08:30am 11.7 10.2 6.8 72 2.3 SSW 4 9 2 5 1023.0 - 0.0
19/08:00am 11.0 8.5 6.7 75 2.0 N 9 11 5 6 1022.7 - 0.0
19/07:30am 10.4 7.5 6.7 78 1.7 N 11 13 6 7 1022.6 - 0.0
19/07:00am 10.1 7.6 6.4 78 1.7 NNW 9 11 5 6 1022.5 - 0.0
19/06:30am 10.0 7.5 6.5 79 1.6 N 9 13 5 7 1022.2 - 0.0
19/06:00am 10.0 7.5 6.5 79 1.6 NNW 9 11 5 6 1022.0 1022.0 0.0
19/05:30am 9.9 7.8 6.8 81 1.5 N 7 9 4 5 1022.0 - 0.0
19/05:00am 9.9 8.1 7.0 82 1.4 N 6 9 3 5 1022.0 - 0.0
19/04:30am 9.6 8.9 7.0 84 1.2 CALM 0 0 0 0 1021.8 - 0.0
19/04:00am 9.3 8.5 6.7 84 1.2 CALM 0 0 0 0 1021.8 - 0.0
19/03:30am 9.1 6.2 6.4 83 1.3 NNW 11 13 6 7 1021.6 - 0.0
19/03:00am 8.9 6.8 6.5 85 1.1 NNW 7 9 4 5 1021.6 1021.6 0.0
19/02:30am 8.8 7.5 6.2 84 1.2 ENE 2 13 1 7 1021.9 - 0.0
19/02:00am 9.7 9.0 7.0 83 1.3 CALM 0 0 0 0 1022.1 - 0.0
19/01:30am 10.2 9.6 7.3 82 1.4 CALM 0 0 0 0 1022.4 - 0.0
19/01:00am 10.0 9.4 7.3 83 1.3 CALM 0 0 0 0 1022.4 - 0.0
19/12:30am 9.5 8.1 7.3 86 1.0 ENE 4 7 2 4 1022.5 - 0.0
19/12:00am 8.9 8.3 7.2 89 0.8 CALM 0 0 0 0 1022.5 1022.5 0.0
 
Date/Time
CST
Temp
°C
App
Temp
°C
Dew
Point
Rel
Hum
%
Delta-T
°C
Wind Press
QNH
hPa
Press
MSL
hPa
Rain
since 9 am
mm
Dir
 
Spd
km/h
Gust
km/h
Spd
kts
Gust
kts
18/11:30pm 8.2 7.5 7.0 92 0.6 CALM 0 0 0 0 1022.7 - 0.0
18/11:00pm 7.0 6.0 5.6 91 0.6 CALM 0 0 0 0 1022.8 - 0.0
18/10:30pm 7.2 6.2 5.7 90 0.7 CALM 0 0 0 0 1023.1 - 0.0
18/10:00pm 7.6 6.5 5.2 85 1.1 CALM 0 0 0 0 1023.1 - 0.0

Other Formats:

Comma delimited format used in spreadsheet applications
http://www.bom.gov.au/fwo/IDS60801/IDS60801.94820.axf

JavaScript Object Notation format (JSON) in row-major order
http://www.bom.gov.au/fwo/IDS60801/IDS60801.94820.json